Time;durP1;ratioP1;P1;durP2;ratioP2;P2;SDS_P1;SDS_P2;PMS_P1;PMS_P2;Temp;Humidity;BMP_temperature;BMP_pressure;BME280_temperature;BME280_humidity;BME280_pressure;Samples;Min_cycle;Max_cycle;Signal;HPM_P1;HPM_P2
2021/11/05 00:00:28;;;;;;;0.90;0.90;;;3.00;99.90;2.70;96592.00;;;;5031234;28;20455;-51
2021/11/05 00:03:17;;;;;;;0.97;0.63;;;3.10;99.90;2.50;96597.00;;;;5034024;28;20471;-57
2021/11/05 00:06:05;;;;;;;1.80;0.60;;;3.00;99.90;2.50;96588.00;;;;5031876;28;20424;-59
2021/11/05 00:08:55;;;;;;;0.53;0.50;;;3.00;99.90;2.60;96597.00;;;;5031228;28;20427;-59
2021/11/05 00:11:43;;;;;;;2.30;0.70;;;3.00;99.90;2.40;96600.00;;;;5031617;28;20471;-57
2021/11/05 00:14:34;;;;;;;0.87;0.63;;;3.00;99.90;2.60;96601.00;;;;5033755;28;20436;-52
2021/11/05 00:17:22;;;;;;;1.53;0.77;;;3.00;99.90;2.70;96595.00;;;;5034778;28;20446;-51
2021/11/05 00:20:12;;;;;;;0.70;0.70;;;3.10;99.90;2.60;96599.00;;;;5046478;28;20427;-56
2021/11/05 00:23:02;;;;;;;1.10;0.87;;;3.10;99.90;2.50;96605.00;;;;5030789;28;20828;-55
2021/11/05 00:25:51;;;;;;;0.80;0.80;;;3.10;99.90;2.20;96603.00;;;;5044690;28;20434;-54
2021/11/05 00:28:40;;;;;;;0.97;0.70;;;3.00;99.90;2.20;96595.00;;;;5044334;28;20427;-53
2021/11/05 00:31:30;;;;;;;0.73;0.70;;;2.90;99.90;1.90;96609.00;;;;5032574;28;20456;-54
2021/11/05 00:34:19;;;;;;;1.17;1.17;;;2.80;99.90;1.80;96611.00;;;;5031487;28;20440;-54
2021/11/05 00:37:08;;;;;;;0.60;0.60;;;2.70;99.90;1.90;96611.00;;;;5035778;28;20428;-55
2021/11/05 00:39:57;;;;;;;1.07;0.77;;;2.60;99.90;2.40;96621.00;;;;5033480;28;20959;-55
2021/11/05 00:42:46;;;;;;;0.60;0.60;;;2.70;99.90;2.60;96613.00;;;;5035822;28;20451;-59
2021/11/05 00:45:35;;;;;;;1.50;0.93;;;2.80;99.90;2.70;96626.00;;;;5033620;28;20435;-59
2021/11/05 00:48:25;;;;;;;0.77;0.73;;;2.80;99.90;2.90;96630.00;;;;5034342;28;21169;-55
2021/11/05 00:51:14;;;;;;;0.60;0.50;;;3.00;99.90;3.00;96624.00;;;;5037191;28;20459;-54
2021/11/05 00:54:03;;;;;;;0.50;0.50;;;3.10;99.90;2.60;96617.00;;;;5035862;28;20443;-57
2021/11/05 00:56:52;;;;;;;5.17;0.90;;;3.20;99.90;2.70;96621.00;;;;5029683;28;20432;-55
2021/11/05 00:59:41;;;;;;;0.43;0.43;;;3.20;99.90;2.90;96621.00;;;;5027773;28;20428;-57
2021/11/05 01:02:30;;;;;;;0.40;0.40;;;3.20;99.90;3.00;96619.00;;;;5036314;28;20447;-54
2021/11/05 01:05:20;;;;;;;0.40;0.40;;;3.30;99.90;3.10;96623.00;;;;5040277;28;20476;-53
2021/11/05 01:08:09;;;;;;;1.40;0.67;;;3.30;99.90;3.00;96624.00;;;;5040543;28;20429;-53
2021/11/05 01:10:58;;;;;;;0.40;0.40;;;3.30;99.90;2.70;96620.00;;;;5040479;28;20427;-51
2021/11/05 01:13:47;;;;;;;0.87;0.70;;;3.40;99.90;2.60;96624.00;;;;5037766;28;20429;-52
2021/11/05 01:16:36;;;;;;;0.50;0.50;;;3.30;99.90;2.90;96641.00;;;;5040093;28;20438;-57
2021/11/05 01:19:25;;;;;;;0.50;0.50;;;3.40;99.90;3.00;96630.00;;;;5027647;28;20425;-57
2021/11/05 01:22:15;;;;;;;0.80;0.70;;;3.40;99.90;3.00;96624.00;;;;5038639;28;20455;-57
2021/11/05 01:25:05;;;;;;;0.40;0.40;;;3.20;99.90;3.00;96622.00;;;;5037951;28;20467;-56
2021/11/05 01:27:54;;;;;;;1.03;0.57;;;3.50;99.90;3.10;96615.00;;;;5031915;28;20438;-57
2021/11/05 01:30:43;;;;;;;0.70;0.70;;;3.50;99.90;2.90;96625.00;;;;5034012;28;20817;-54
2021/11/05 01:33:32;;;;;;;0.50;0.40;;;3.50;99.90;2.80;96625.00;;;;5034811;28;20795;-51
2021/11/05 01:36:21;;;;;;;0.40;0.40;;;3.50;99.90;2.90;96621.00;;;;5026553;28;20423;-54
2021/11/05 01:39:11;;;;;;;0.80;0.60;;;3.50;99.90;3.30;96646.00;;;;5038531;28;20432;-57
2021/11/05 01:42:00;;;;;;;0.80;0.50;;;3.50;99.90;3.30;96642.00;;;;5040013;28;20450;-53
2021/11/05 01:44:50;;;;;;;0.40;0.40;;;3.60;99.90;3.50;96644.00;;;;5037064;28;20467;-55
2021/11/05 01:47:40;;;;;;;2.20;0.60;;;3.70;99.90;3.40;96640.00;;;;5038281;28;20779;-59
2021/11/05 01:50:30;;;;;;;0.80;0.60;;;3.70;99.90;3.50;96643.00;;;;5039913;28;20432;-56
2021/11/05 01:53:19;;;;;;;0.87;0.50;;;3.80;99.90;3.70;96659.00;;;;5040229;28;20867;-57
2021/11/05 01:56:09;;;;;;;0.60;0.60;;;3.90;99.90;3.60;96655.00;;;;5027129;28;20463;-53
2021/11/05 01:58:58;;;;;;;0.40;0.40;;;3.90;99.90;3.50;96656.00;;;;5027013;28;20424;-57
2021/11/05 02:01:47;;;;;;;1.33;1.23;;;3.90;99.90;3.30;96649.00;;;;5039586;28;21018;-54
2021/11/05 02:04:36;;;;;;;0.80;0.80;;;3.90;99.90;3.20;96657.00;;;;5038858;28;20768;-54
2021/11/05 02:07:29;;;;;;;0.70;0.43;;;3.90;99.90;3.20;96659.00;;;;5035957;28;20442;-55
2021/11/05 02:10:19;;;;;;;1.03;0.40;;;3.80;99.90;3.30;96665.00;;;;5038899;28;20443;-59
2021/11/05 02:13:14;;;;;;;0.40;0.40;;;3.80;99.90;3.50;96668.00;;;;5028832;28;20455;-56
2021/11/05 02:16:04;;;;;;;0.40;0.40;;;3.80;99.90;3.60;96669.00;;;;5031911;28;20808;-52
2021/11/05 02:18:53;;;;;;;0.60;0.60;;;3.90;99.90;3.70;96662.00;;;;5036711;28;20428;-51
2021/11/05 02:21:45;;;;;;;0.70;0.60;;;4.00;99.90;3.80;96677.00;;;;5034516;28;20558;-52
2021/11/05 02:24:35;;;;;;;0.53;0.53;;;4.00;99.90;3.70;96686.00;;;;5032845;28;20490;-54
2021/11/05 02:27:23;;;;;;;0.83;0.60;;;4.00;99.90;3.30;96679.00;;;;5032136;28;20788;-50
2021/11/05 02:30:13;;;;;;;0.97;0.60;;;4.00;99.90;3.20;96673.00;;;;5035641;28;20437;-51
2021/11/05 02:33:02;;;;;;;0.73;0.70;;;3.90;99.90;3.30;96683.00;;;;5034252;28;20451;-53
2021/11/05 02:35:51;;;;;;;0.87;0.80;;;3.90;99.90;3.30;96681.00;;;;5030998;28;20439;-58
2021/11/05 02:38:41;;;;;;;0.73;0.73;;;3.90;99.90;3.50;96677.00;;;;5044912;28;20427;-55
2021/11/05 02:41:31;;;;;;;0.40;0.40;;;3.90;99.90;3.40;96679.00;;;;5035119;28;20444;-51
2021/11/05 02:44:21;;;;;;;0.30;0.30;;;3.90;99.90;3.20;96680.00;;;;5032842;28;20470;-53
2021/11/05 02:47:20;;;;;;;0.70;0.70;;;3.90;99.90;3.10;96685.00;;;;5031461;28;20419;-53
2021/11/05 02:50:12;;;;;;;1.00;0.70;;;3.80;99.90;3.30;96684.00;;;;5029646;28;20431;-58
2021/11/05 02:53:01;;;;;;;0.77;0.73;;;3.90;99.90;3.40;96687.00;;;;5025297;28;21068;-51
2021/11/05 02:55:52;;;;;;;0.40;0.40;;;3.90;99.90;3.40;96692.00;;;;5034555;28;20419;-58
2021/11/05 02:58:42;;;;;;;1.00;0.50;;;3.90;99.90;3.20;96694.00;;;;5027836;28;20916;-52
2021/11/05 03:01:31;;;;;;;0.50;0.50;;;3.90;99.90;3.40;96704.00;;;;5036254;28;20451;-51
2021/11/05 03:04:24;;;;;;;0.40;0.40;;;3.90;99.90;3.60;96694.00;;;;5026281;28;20464;-53
2021/11/05 03:07:13;;;;;;;2.50;0.40;;;3.90;99.90;3.80;96700.00;;;;5034573;28;20430;-51
2021/11/05 03:10:02;;;;;;;0.50;0.50;;;4.00;99.90;3.90;96704.00;;;;5031985;28;20216;-53
2021/11/05 03:12:53;;;;;;;0.80;0.70;;;4.10;99.90;3.80;96713.00;;;;5029250;28;20448;-53
2021/11/05 03:15:42;;;;;;;0.40;0.40;;;4.10;99.90;3.80;96729.00;;;;5037878;28;20419;-55
2021/11/05 03:18:34;;;;;;;0.60;0.60;;;4.20;99.90;3.90;96727.00;;;;5038102;28;20439;-54
2021/11/05 03:21:23;;;;;;;1.07;0.80;;;4.30;99.90;4.00;96730.00;;;;5037822;28;20451;-53
2021/11/05 03:24:12;;;;;;;1.67;0.90;;;4.30;99.90;4.00;96725.00;;;;5037041;28;20424;-57
2021/11/05 03:27:01;;;;;;;0.60;0.60;;;4.40;99.90;4.20;96731.00;;;;5025404;28;20431;-54
2021/11/05 03:29:51;;;;;;;0.50;0.50;;;4.40;99.90;4.40;96742.00;;;;5044464;28;20474;-57
2021/11/05 03:32:41;;;;;;;0.57;0.57;;;4.50;99.90;4.50;96745.00;;;;5031317;28;20235;-55
2021/11/05 03:35:31;;;;;;;1.43;0.63;;;4.60;99.90;4.20;96751.00;;;;5031290;28;20436;-55
2021/11/05 03:38:20;;;;;;;0.50;0.50;;;4.60;99.90;4.10;96763.00;;;;5044757;28;20442;-52
2021/11/05 03:41:09;;;;;;;0.77;0.50;;;4.60;99.90;4.20;96768.00;;;;5024549;28;20216;-59
2021/11/05 03:43:59;;;;;;;0.83;0.60;;;4.60;99.90;4.20;96769.00;;;;5040151;28;20208;-56
2021/11/05 03:46:49;;;;;;;0.83;0.60;;;4.60;99.90;4.20;96772.00;;;;5037445;28;20577;-53
2021/11/05 03:49:38;;;;;;;0.77;0.77;;;4.60;99.90;4.00;96768.00;;;;5036315;28;20216;-51
2021/11/05 03:52:27;;;;;;;1.50;0.87;;;4.60;99.90;4.00;96773.00;;;;5031929;28;20224;-51
2021/11/05 03:55:16;;;;;;;0.50;0.50;;;4.50;99.90;4.00;96774.00;;;;5031453;28;20442;-52
2021/11/05 03:58:05;;;;;;;1.37;0.70;;;4.50;99.90;4.10;96772.00;;;;5030829;28;20439;-58
2021/11/05 04:00:54;;;;;;;0.93;0.77;;;4.50;99.90;4.20;96780.00;;;;5034568;28;20212;-56
2021/11/05 04:03:44;;;;;;;0.50;0.50;;;4.50;99.90;4.30;96773.00;;;;5029719;28;20428;-54
2021/11/05 04:06:34;;;;;;;0.53;0.53;;;4.60;99.90;4.20;96777.00;;;;5030171;28;20236;-52
2021/11/05 04:09:23;;;;;;;0.50;0.50;;;4.50;99.90;4.30;96780.00;;;;5032513;28;20197;-53
2021/11/05 04:12:12;;;;;;;0.60;0.50;;;4.60;99.90;4.30;96785.00;;;;5031862;28;20228;-52
2021/11/05 04:15:01;;;;;;;1.03;0.90;;;4.60;99.90;4.30;96774.00;;;;5028136;28;20208;-54
2021/11/05 04:17:50;;;;;;;0.83;0.83;;;4.70;99.90;4.20;96777.00;;;;5041182;28;20216;-57
2021/11/05 04:20:40;;;;;;;0.80;0.67;;;4.60;99.90;4.10;96787.00;;;;5031255;28;20205;-53
2021/11/05 04:23:30;;;;;;;0.97;0.70;;;4.60;99.90;4.10;96770.00;;;;5038021;28;20435;-58
2021/11/05 04:26:19;;;;;;;0.83;0.80;;;4.50;99.90;4.00;96780.00;;;;5041784;28;20225;-50
2021/11/05 04:29:08;;;;;;;0.50;0.50;;;4.50;99.90;4.00;96785.00;;;;5040112;28;20200;-54
2021/11/05 04:31:57;;;;;;;1.73;0.60;;;4.50;99.90;3.90;96789.00;;;;5039261;28;20828;-53
2021/11/05 04:34:46;;;;;;;1.97;1.63;;;4.50;99.90;4.00;96786.00;;;;5035903;28;20223;-55
2021/11/05 04:37:36;;;;;;;0.80;0.77;;;4.50;99.90;4.00;96793.00;;;;5044731;28;20223;-58
2021/11/05 04:40:25;;;;;;;1.00;0.63;;;4.50;99.90;4.00;96789.00;;;;5044068;28;20212;-53
2021/11/05 04:43:14;;;;;;;0.50;0.50;;;4.50;99.90;4.00;96792.00;;;;5045764;28;20220;-56
2021/11/05 04:46:03;;;;;;;0.53;0.50;;;4.50;99.90;4.00;96797.00;;;;5043052;28;20463;-55
2021/11/05 04:48:52;;;;;;;0.60;0.60;;;4.50;99.90;4.00;96795.00;;;;5043085;28;20432;-51
2021/11/05 04:51:42;;;;;;;2.67;0.67;;;4.50;99.90;4.00;96797.00;;;;5046392;28;20578;-53
2021/11/05 04:54:32;;;;;;;0.77;0.60;;;4.50;99.90;4.10;96808.00;;;;5046984;28;20205;-58
2021/11/05 04:57:21;;;;;;;0.50;0.50;;;4.50;99.90;4.10;96819.00;;;;5038280;28;20438;-53
2021/11/05 05:00:11;;;;;;;1.03;0.53;;;4.50;99.90;4.20;96815.00;;;;5048595;28;20196;-55
2021/11/05 05:03:00;;;;;;;1.37;0.70;;;4.50;99.90;4.20;96831.00;;;;5046472;28;20225;-55
2021/11/05 05:05:49;;;;;;;1.80;0.60;;;4.50;99.90;4.30;96836.00;;;;5035508;28;20451;-54
2021/11/05 05:08:39;;;;;;;0.80;0.80;;;4.60;99.90;4.20;96850.00;;;;5034018;28;20204;-56
2021/11/05 05:11:32;;;;;;;0.70;0.70;;;4.60;99.90;4.30;96862.00;;;;5033878;28;20230;-58
2021/11/05 05:14:21;;;;;;;0.70;0.70;;;4.60;99.90;4.40;96858.00;;;;5035958;28;20681;-57
2021/11/05 05:17:10;;;;;;;0.70;0.70;;;4.70;99.90;4.50;96855.00;;;;5045933;28;20205;-55
2021/11/05 05:19:59;;;;;;;0.80;0.80;;;4.70;99.90;4.50;96859.00;;;;5031135;28;20436;-51
2021/11/05 05:22:48;;;;;;;2.20;0.80;;;4.80;99.90;4.50;96857.00;;;;5027451;28;20727;-54
2021/11/05 05:25:37;;;;;;;1.10;0.80;;;4.80;99.90;4.50;96855.00;;;;5040573;28;20224;-52
2021/11/05 05:28:30;;;;;;;0.50;0.50;;;4.80;99.90;4.40;96868.00;;;;5032530;28;20211;-55
2021/11/05 05:31:19;;;;;;;0.67;0.67;;;4.80;99.90;4.20;96873.00;;;;5045719;28;20235;-50
2021/11/05 05:34:08;;;;;;;2.10;0.50;;;4.80;99.90;4.40;96868.00;;;;5043283;28;20220;-57
2021/11/05 05:36:57;;;;;;;0.90;0.70;;;4.80;99.90;4.50;96871.00;;;;5041077;28;20671;-53
2021/11/05 05:39:46;;;;;;;2.03;0.70;;;4.80;99.90;4.60;96878.00;;;;5041454;28;20209;-56
2021/11/05 05:42:35;;;;;;;0.73;0.73;;;4.80;99.90;4.70;96876.00;;;;5045297;28;20231;-54
2021/11/05 05:45:26;;;;;;;0.77;0.60;;;4.80;99.90;4.70;96884.00;;;;5034975;28;20204;-56
2021/11/05 05:48:15;;;;;;;0.70;0.67;;;4.90;99.90;4.70;96891.00;;;;5036151;28;20211;-56
2021/11/05 05:51:04;;;;;;;0.83;0.67;;;4.90;99.90;4.60;96902.00;;;;5032958;28;20207;-51
2021/11/05 05:53:53;;;;;;;0.93;0.87;;;4.90;99.90;4.60;96900.00;;;;5033972;28;20209;-58
2021/11/05 05:56:42;;;;;;;0.80;0.80;;;5.00;99.90;4.70;96901.00;;;;5035743;28;20673;-54
2021/11/05 05:59:31;;;;;;;1.67;1.20;;;5.00;99.90;4.80;96903.00;;;;5034626;28;20600;-57
2021/11/05 06:02:21;;;;;;;1.40;0.90;;;5.00;99.90;4.70;96904.00;;;;5031382;28;20247;-53
2021/11/05 06:05:10;;;;;;;2.33;1.17;;;5.00;99.90;4.70;96909.00;;;;5042187;28;20279;-53
2021/11/05 06:07:59;;;;;;;0.83;0.83;;;5.00;99.90;4.70;96920.00;;;;5043077;28;20403;-54
2021/11/05 06:10:48;;;;;;;1.20;1.10;;;5.10;99.90;4.90;96914.00;;;;5040385;28;20200;-51
2021/11/05 06:13:38;;;;;;;1.07;0.90;;;5.10;99.90;4.80;96915.00;;;;5042894;28;20207;-56
2021/11/05 06:16:27;;;;;;;1.20;1.10;;;5.10;99.90;4.70;96926.00;;;;5042634;28;20672;-51
2021/11/05 06:19:17;;;;;;;1.33;1.23;;;5.10;99.90;4.80;96928.00;;;;5027276;28;20603;-58
2021/11/05 06:22:06;;;;;;;7.30;4.07;;;5.10;99.90;4.70;96934.00;;;;5040887;28;20228;-58
2021/11/05 06:24:56;;;;;;;3.33;2.20;;;5.10;99.90;4.70;96920.00;;;;5036941;28;20211;-51
2021/11/05 06:27:46;;;;;;;1.60;1.40;;;5.10;99.90;4.50;96935.00;;;;5033859;28;20707;-54
2021/11/05 06:30:35;;;;;;;3.10;1.50;;;5.10;99.90;4.50;96921.00;;;;5043347;28;20584;-52
2021/11/05 06:33:23;;;;;;;2.07;1.50;;;5.00;99.90;4.60;96933.00;;;;5039192;28;20211;-51
2021/11/05 06:36:14;;;;;;;3.13;2.00;;;5.00;99.90;4.80;96941.00;;;;5042642;28;20576;-55
2021/11/05 06:39:05;;;;;;;2.60;2.07;;;5.00;99.90;4.80;96944.00;;;;5043808;28;20197;-56
2021/11/05 06:41:55;;;;;;;1.83;1.23;;;5.10;99.90;4.50;96938.00;;;;5041227;28;20297;-56
2021/11/05 06:44:44;;;;;;;2.47;1.57;;;5.10;99.90;4.40;96946.00;;;;5043959;28;20672;-52
2021/11/05 06:47:32;;;;;;;1.57;1.20;;;5.00;99.90;4.60;96941.00;;;;5048548;28;20626;-55
2021/11/05 06:50:22;;;;;;;2.70;1.10;;;5.00;99.90;4.70;96949.00;;;;5045043;28;20221;-52
2021/11/05 06:53:12;;;;;;;2.27;1.57;;;5.10;99.90;4.80;96959.00;;;;5032897;28;20390;-51
2021/11/05 06:56:02;;;;;;;2.67;1.43;;;5.10;99.90;4.90;96963.00;;;;5038340;28;20212;-52
2021/11/05 06:58:56;;;;;;;3.00;1.87;;;5.20;99.90;5.50;96968.00;;;;5043351;28;20578;-51
2021/11/05 07:01:45;;;;;;;2.70;1.80;;;5.30;99.90;5.70;96974.00;;;;5039209;28;20216;-52
2021/11/05 07:04:33;;;;;;;1.90;1.60;;;5.40;99.90;5.80;96979.00;;;;5046075;28;20599;-51
2021/11/05 07:07:24;;;;;;;1.70;1.37;;;5.60;99.90;5.70;96979.00;;;;5032059;28;20224;-52
2021/11/05 07:10:15;;;;;;;1.27;1.03;;;5.70;99.90;5.60;96974.00;;;;5043541;28;20201;-52
2021/11/05 07:13:04;;;;;;;1.93;1.50;;;5.80;99.90;5.60;96984.00;;;;5040168;28;20225;-54
2021/11/05 07:15:53;;;;;;;1.80;1.70;;;5.80;99.90;5.60;96979.00;;;;5033882;28;20212;-59
2021/11/05 07:18:42;;;;;;;5.10;1.50;;;5.80;99.90;5.80;96989.00;;;;5043954;28;20208;-52
2021/11/05 07:21:32;;;;;;;4.17;2.80;;;5.90;99.90;5.60;96992.00;;;;5042974;28;20232;-54
2021/11/05 07:24:21;;;;;;;4.43;2.47;;;5.90;99.90;5.50;96999.00;;;;5037529;28;20213;-59
2021/11/05 07:27:12;;;;;;;4.10;1.83;;;5.90;99.90;5.70;96998.00;;;;5033091;28;20221;-53
2021/11/05 07:30:01;;;;;;;3.70;1.77;;;5.90;99.90;6.00;96991.00;;;;5032928;28;20201;-50
2021/11/05 07:32:51;;;;;;;2.43;1.43;;;6.00;99.90;6.50;97000.00;;;;5032657;28;20252;-58
2021/11/05 07:35:40;;;;;;;2.57;1.60;;;6.10;99.90;6.40;97004.00;;;;5033303;28;20205;-57
2021/11/05 07:38:29;;;;;;;5.83;3.30;;;6.30;99.90;6.40;97016.00;;;;5032337;28;20591;-51
2021/11/05 07:41:18;;;;;;;5.67;3.97;;;6.40;99.90;6.30;97006.00;;;;5040297;28;20224;-57
2021/11/05 07:44:08;;;;;;;4.87;3.13;;;6.40;99.90;6.20;97013.00;;;;5073343;22;20238;-84
2021/11/05 07:46:57;;;;;;;3.60;3.10;;;6.50;99.90;6.20;97010.00;;;;5068813;28;20231;-83
2021/11/05 07:49:46;;;;;;;3.57;2.70;;;6.50;99.90;6.40;97018.00;;;;5063798;28;20216;-84
2021/11/05 07:52:36;;;;;;;5.23;2.70;;;6.50;99.90;6.50;97024.00;;;;5073196;28;20302;-83
2021/11/05 07:55:25;;;;;;;2.60;2.23;;;6.60;99.90;6.50;97025.00;;;;5075711;28;20200;-84
2021/11/05 07:58:15;;;;;;;2.90;1.83;;;6.60;99.90;6.40;97023.00;;;;5068412;28;20223;-84
2021/11/05 08:01:05;;;;;;;2.80;2.17;;;6.60;99.90;6.40;97033.00;;;;5074456;28;20694;-84
2021/11/05 08:03:54;;;;;;;4.37;2.10;;;6.70;99.90;6.50;97032.00;;;;5074937;28;20488;-84
2021/11/05 08:06:43;;;;;;;7.60;3.03;;;6.70;99.90;6.80;97052.00;;;;5074479;28;20215;-84
2021/11/05 08:09:32;;;;;;;5.10;2.93;;;6.80;99.90;7.00;97046.00;;;;5076950;28;20207;-84
2021/11/05 08:12:21;;;;;;;5.07;2.60;;;6.90;99.90;7.00;97051.00;;;;5074196;28;20231;-84
2021/11/05 08:15:10;;;;;;;4.93;2.60;;;7.00;99.90;7.00;97054.00;;;;5075293;28;20678;-85
2021/11/05 08:18:01;;;;;;;3.90;2.77;;;7.00;99.90;6.90;97056.00;;;;5075387;28;20222;-84
2021/11/05 08:20:50;;;;;;;3.17;2.87;;;7.00;99.90;6.80;97051.00;;;;5074914;28;20693;-84
2021/11/05 08:23:39;;;;;;;5.07;2.27;;;7.00;99.90;6.60;97053.00;;;;5073622;28;20202;-84
2021/11/05 08:26:28;;;;;;;5.43;2.87;;;7.00;99.90;6.70;97053.00;;;;5069512;28;20205;-84
2021/11/05 08:29:18;;;;;;;5.57;2.60;;;7.00;99.90;6.90;97059.00;;;;5067478;28;20214;-84
2021/11/05 08:32:09;;;;;;;4.63;2.63;;;7.00;99.90;7.00;97054.00;;;;5074023;28;20224;-84
2021/11/05 08:34:59;;;;;;;6.00;2.97;;;7.10;99.90;7.20;97063.00;;;;5074490;28;20211;-84
2021/11/05 08:37:48;;;;;;;5.37;2.83;;;7.10;99.90;7.30;97059.00;;;;5066228;28;20210;-84
2021/11/05 08:40:37;;;;;;;6.30;2.50;;;7.20;99.90;7.50;97060.00;;;;5072718;28;20667;-84
2021/11/05 08:43:32;;;;;;;8.13;3.17;;;7.30;99.90;7.80;97062.00;;;;5073350;28;20235;-84
2021/11/05 08:46:21;;;;;;;2.63;2.20;;;7.50;99.90;8.00;97063.00;;;;5061026;28;20204;-84
2021/11/05 08:49:24;;;;;;;6.93;3.40;;;7.70;99.90;8.10;97049.00;;;;5073944;28;20603;-84
2021/11/05 08:52:15;;;;;;;4.03;3.07;;;7.80;99.90;8.10;97053.00;;;;5072034;28;20231;-84
2021/11/05 08:55:05;;;;;;;4.67;3.17;;;8.00;99.90;8.30;97062.00;;;;5073410;28;20686;-84
2021/11/05 08:57:54;;;;;;;5.43;2.77;;;8.10;99.90;8.40;97072.00;;;;5073971;28;20204;-84
2021/11/05 09:00:43;;;;;;;5.57;3.03;;;8.20;99.90;8.60;97077.00;;;;5071611;28;20206;-84
2021/11/05 09:03:33;;;;;;;3.27;2.23;;;8.30;99.90;8.70;97084.00;;;;5072753;28;20204;-84
2021/11/05 09:06:23;;;;;;;3.63;3.07;;;8.40;99.90;8.80;97086.00;;;;5072681;28;20211;-84
2021/11/05 09:09:13;;;;;;;5.87;2.53;;;8.50;99.90;8.90;97097.00;;;;5072760;28;20230;-84
2021/11/05 09:12:02;;;;;;;3.80;2.40;;;8.60;99.90;9.00;97104.00;;;;5072788;28;20223;-85
2021/11/05 09:14:51;;;;;;;7.53;2.93;;;8.70;99.90;9.10;97104.00;;;;5071581;28;20214;-84
2021/11/05 09:17:44;;;;;;;5.97;2.57;;;8.80;99.90;9.20;97116.00;;;;5071920;28;20344;-84
2021/11/05 09:20:33;;;;;;;6.63;2.73;;;8.90;99.90;9.20;97117.00;;;;5071708;28;20207;-84
2021/11/05 09:23:24;;;;;;;5.70;2.67;;;9.00;99.90;9.20;97119.00;;;;5072310;28;20702;-84
2021/11/05 09:26:15;;;;;;;5.57;2.53;;;9.00;99.90;9.20;97129.00;;;;5073081;28;20208;-84
2021/11/05 09:29:04;;;;;;;3.30;2.40;;;9.10;99.90;9.30;97131.00;;;;5070808;28;20219;-84
2021/11/05 09:31:53;;;;;;;4.50;2.57;;;9.10;99.90;9.30;97138.00;;;;5072260;28;20230;-84
2021/11/05 09:34:42;;;;;;;4.33;2.43;;;9.20;99.90;9.30;97137.00;;;;5071159;28;20576;-84
2021/11/05 09:37:31;;;;;;;4.23;2.60;;;9.20;99.90;9.30;97140.00;;;;5071898;28;20572;-84
2021/11/05 09:40:24;;;;;;;4.67;2.33;;;9.20;99.90;9.40;97144.00;;;;5071896;28;20203;-84
2021/11/05 09:43:14;;;;;;;2.70;1.77;;;9.20;99.90;9.20;97151.00;;;;5069747;28;20236;-84
2021/11/05 09:46:03;;;;;;;3.87;2.20;;;9.20;99.90;9.20;97143.00;;;;5069437;28;20207;-84
2021/11/05 09:48:52;;;;;;;3.93;1.50;;;9.20;99.90;9.10;97146.00;;;;5070242;28;20220;-84
2021/11/05 09:51:42;;;;;;;3.00;1.97;;;9.20;99.90;9.20;97153.00;;;;5070683;28;20607;-84
2021/11/05 09:54:34;;;;;;;2.10;1.50;;;9.10;99.90;9.20;97153.00;;;;5062232;28;20214;-84
2021/11/05 09:57:23;;;;;;;5.87;1.80;;;9.10;99.90;9.20;97153.00;;;;5067563;28;20214;-84
2021/11/05 10:00:18;;;;;;;1.67;1.43;;;9.10;99.90;9.00;97152.00;;;;5066917;28;20202;-84
2021/11/05 10:03:07;;;;;;;2.80;1.77;;;9.10;99.90;9.10;97148.00;;;;5069693;28;20227;-84
2021/11/05 10:05:58;;;;;;;5.30;1.53;;;9.10;99.90;9.20;97157.00;;;;5068728;28;20192;-84
2021/11/05 10:08:53;;;;;;;3.40;1.50;;;9.10;99.90;9.20;97161.00;;;;5067195;28;20231;-84
2021/11/05 10:11:42;;;;;;;1.77;1.60;;;9.10;99.90;9.00;97167.00;;;;5069611;28;20298;-84
2021/11/05 10:14:31;;;;;;;3.63;1.83;;;9.20;99.90;9.20;97162.00;;;;5060179;28;20433;-84
2021/11/05 10:17:22;;;;;;;2.43;1.20;;;9.10;99.90;9.10;97156.00;;;;5065830;28;20208;-84
2021/11/05 10:20:12;;;;;;;1.67;1.47;;;10.00;99.90;9.30;97157.00;;;;5067058;28;20219;-84
2021/11/05 10:23:03;;;;;;;2.43;1.63;;;9.20;99.90;9.20;97156.00;;;;5071131;28;20609;-84
2021/11/05 10:25:52;;;;;;;3.03;1.63;;;9.20;99.90;9.20;97149.00;;;;5067305;28;20587;-84
2021/11/05 10:28:41;;;;;;;4.87;2.10;;;9.20;99.90;9.40;97162.00;;;;5070678;28;20605;-84
2021/11/05 10:31:31;;;;;;;3.83;1.77;;;9.30;99.90;9.70;97158.00;;;;5070260;28;20224;-84
2021/11/05 10:34:21;;;;;;;3.30;2.00;;;9.40;99.90;9.90;97156.00;;;;5063372;28;20203;-84
2021/11/05 10:37:10;;;;;;;2.60;1.80;;;9.50;99.90;10.10;97169.00;;;;5061774;28;20671;-84
2021/11/05 10:40:00;;;;;;;2.03;1.77;;;9.70;99.90;10.30;97167.00;;;;5067962;28;20674;-84
2021/11/05 10:42:56;;;;;;;2.50;1.83;;;9.80;99.90;10.30;97165.00;;;;5070243;28;20767;-85
2021/11/05 10:45:47;;;;;;;2.77;1.87;;;10.00;99.90;10.70;97153.00;;;;5070271;28;20200;-84
2021/11/05 10:48:38;;;;;;;2.90;1.90;;;10.20;99.90;11.00;97162.00;;;;5069013;28;20216;-84
2021/11/05 10:51:31;;;;;;;1.10;1.00;;;10.40;99.90;10.60;97162.00;;;;5067368;28;20238;-84
2021/11/05 10:54:20;;;;;;;0.90;0.90;;;10.50;99.90;10.30;97167.00;;;;5068096;28;20208;-84
2021/11/05 10:57:09;;;;;;;1.60;1.20;;;10.50;99.90;10.00;97166.00;;;;5068207;28;20571;-84
2021/11/05 11:00:21;;;;;;;1.27;1.17;;;10.40;99.90;10.10;97169.00;;;;5069215;28;20215;-84
2021/11/05 11:03:17;;;;;;;1.70;1.20;;;10.30;99.90;10.10;97169.00;;;;5060498;28;20890;-83
2021/11/05 11:06:13;;;;;;;4.57;1.20;;;10.20;99.90;10.10;97174.00;;;;5067762;28;20215;-84
2021/11/05 11:09:07;;;;;;;0.80;0.80;;;10.20;99.90;10.20;97171.00;;;;5070569;28;20220;-84
2021/11/05 11:11:58;;;;;;;3.17;1.10;;;10.20;99.90;10.20;97168.00;;;;5067871;28;20233;-84
2021/11/05 11:14:47;;;;;;;3.07;1.07;;;10.20;99.90;10.50;97162.00;;;;5058533;28;20581;-84
2021/11/05 11:17:54;;;;;;;2.47;1.30;;;10.20;99.90;10.80;97163.00;;;;5070704;28;20199;-85
2021/11/05 11:20:43;;;;;;;6.23;2.53;;;10.40;99.90;11.00;97165.00;;;;5066067;28;20199;-84
2021/11/05 11:23:32;;;;;;;5.37;1.10;;;10.50;99.90;11.00;97164.00;;;;5061130;28;20208;-84
2021/11/05 11:26:23;;;;;;;1.77;1.43;;;10.60;99.90;11.00;97174.00;;;;5066582;28;20197;-84
2021/11/05 11:29:13;;;;;;;1.80;1.50;;;10.70;99.90;11.00;97168.00;;;;5067274;28;20266;-84
2021/11/05 11:32:05;;;;;;;1.47;1.30;;;10.80;99.90;11.10;97168.00;;;;5068344;28;20222;-84
2021/11/05 11:34:55;;;;;;;3.10;1.43;;;10.80;99.90;11.20;97175.00;;;;5068150;28;20697;-84
2021/11/05 11:37:45;;;;;;;3.37;1.07;;;10.90;99.90;11.20;97177.00;;;;5068167;28;20215;-84
2021/11/05 11:40:34;;;;;;;5.83;1.33;;;10.90;99.90;11.10;97178.00;;;;5064398;28;20214;-84
2021/11/05 11:43:28;;;;;;;2.03;0.97;;;10.90;99.90;11.20;97173.00;;;;5059647;28;20247;-84
2021/11/05 11:46:17;;;;;;;1.10;1.00;;;11.00;99.90;11.20;97174.00;;;;5070765;28;20203;-84
2021/11/05 11:49:10;;;;;;;2.70;1.43;;;11.00;99.90;11.20;97182.00;;;;5072889;28;20227;-84
2021/11/05 11:51:59;;;;;;;1.60;1.30;;;11.00;99.90;11.20;97172.00;;;;5071331;28;20739;-84
2021/11/05 11:54:50;;;;;;;1.20;0.90;;;11.00;99.90;11.50;97173.00;;;;5059971;28;20576;-84
2021/11/05 11:57:40;;;;;;;2.10;1.23;;;11.10;99.90;11.50;97179.00;;;;5068023;28;20708;-84
2021/11/05 12:00:30;;;;;;;2.13;1.17;;;11.10;99.90;11.60;97183.00;;;;5070158;28;20219;-84
2021/11/05 12:03:26;;;;;;;1.73;1.00;;;11.20;99.90;11.60;97187.00;;;;5068280;28;20228;-84
2021/11/05 12:06:15;;;;;;;2.33;1.30;;;11.30;99.90;11.60;97193.00;;;;5060614;28;20231;-84
2021/11/05 12:09:23;;;;;;;2.77;1.23;;;11.30;99.90;11.90;97179.00;;;;5063092;28;20224;-84
2021/11/05 12:12:39;;;;;;;1.57;1.20;;;11.40;99.90;12.10;97181.00;;;;5067909;28;20216;-83
2021/11/05 12:15:28;;;;;;;2.47;0.93;;;11.60;99.90;12.20;97174.00;;;;5040033;28;20208;-84
2021/11/05 12:18:18;;;;;;;1.43;1.03;;;11.70;99.10;12.00;97178.00;;;;5065561;28;20580;-84
2021/11/05 12:21:18;;;;;;;2.63;1.20;;;11.90;96.90;12.10;97173.00;;;;5068361;28;20200;-84
2021/11/05 12:24:31;;;;;;;1.60;1.00;;;11.90;95.80;12.30;97169.00;;;;5068216;28;20200;-84
2021/11/05 12:27:27;;;;;;;1.90;1.23;;;11.90;95.80;12.10;97177.00;;;;5065353;28;20796;-84
2021/11/05 12:30:26;;;;;;;0.87;0.80;;;12.10;95.70;12.00;97177.00;;;;5058614;28;20239;-84
2021/11/05 12:33:34;;;;;;;1.77;1.20;;;12.00;93.60;11.70;97172.00;;;;5068577;28;20716;-84
2021/11/05 12:36:47;;;;;;;2.47;1.53;;;11.90;91.80;11.70;97180.00;;;;5071172;28;21043;-84
2021/11/05 12:39:39;;;;;;;1.93;1.73;;;11.80;91.80;11.70;97182.00;;;;5073505;28;20208;-84
2021/11/05 12:42:37;;;;;;;4.63;1.90;;;11.70;91.50;11.80;97181.00;;;;5068715;28;20722;-84
2021/11/05 12:45:49;;;;;;;2.13;1.17;;;11.70;92.30;12.00;97182.00;;;;5072485;28;20204;-84
2021/11/05 12:48:59;;;;;;;0.90;0.87;;;11.80;91.50;12.10;97183.00;;;;5065210;28;20200;-84
2021/11/05 12:51:52;;;;;;;1.93;0.90;;;11.80;91.20;12.10;97178.00;;;;5069973;28;20239;-83